createdAt,value
2023-08-14T00:00:44.276Z,100803.37
2023-08-14T00:03:47.572Z,100800.59
2023-08-14T00:06:50.497Z,100801.00
2023-08-14T00:09:53.682Z,100797.88
2023-08-14T00:12:56.301Z,100794.72
2023-08-14T00:15:59.326Z,100798.28
2023-08-14T00:19:02.115Z,100796.28
2023-08-14T00:22:05.213Z,100793.91
2023-08-14T00:25:08.294Z,100801.44
2023-08-14T00:28:11.410Z,100800.25
2023-08-14T00:31:14.099Z,100800.28
2023-08-14T00:34:17.085Z,100799.87
2023-08-14T00:37:23.040Z,100803.06
2023-08-14T00:40:26.073Z,100790.78
2023-08-14T00:43:28.819Z,100805.41
2023-08-14T00:46:33.021Z,100801.84
2023-08-14T00:49:35.990Z,100801.84
2023-08-14T00:52:44.861Z,100792.00
2023-08-14T00:55:47.672Z,100791.59
2023-08-14T00:58:51.345Z,100798.72
2023-08-14T01:01:54.230Z,100795.56
2023-08-14T01:04:57.640Z,100796.72
2023-08-14T01:08:00.372Z,100800.66
2023-08-14T01:11:29.669Z,100805.34
2023-08-14T01:14:34.402Z,100807.97
2023-08-14T01:17:39.590Z,100804.06
2023-08-14T01:20:44.119Z,100802.91
2023-08-14T01:24:05.690Z,100802.22
2023-08-14T01:27:09.971Z,100812.87
2023-08-14T01:30:13.048Z,100787.59
2023-08-14T01:33:15.981Z,100799.84
2023-08-14T01:36:40.323Z,100800.28
2023-08-14T01:39:49.527Z,100796.31
2023-08-14T01:43:00.812Z,100795.12
2023-08-14T01:46:06.394Z,100791.56
2023-08-14T01:49:11.650Z,100801.03
2023-08-14T01:52:14.952Z,100791.47
2023-08-14T01:55:17.930Z,100798.94
2023-08-14T01:58:20.578Z,100797.72
2023-08-14T02:01:23.706Z,100793.81
2023-08-14T02:04:27.137Z,100795.12
2023-08-14T02:07:30.331Z,100798.59
2023-08-14T02:10:33.361Z,100799.44
2023-08-14T02:13:36.675Z,100802.50
2023-08-14T02:16:39.700Z,100791.50
2023-08-14T02:19:42.306Z,100798.97
2023-08-14T02:22:45.318Z,100796.22
2023-08-14T02:25:48.026Z,100799.25
2023-08-14T02:28:51.075Z,100800.41
2023-08-14T02:31:53.856Z,100796.16
2023-08-14T02:34:59.580Z,100796.53
2023-08-14T02:38:05.179Z,100786.28
2023-08-14T02:41:08.171Z,100803.34
2023-08-14T02:44:10.866Z,100795.91
2023-08-14T02:47:14.303Z,100809.31
2023-08-14T02:50:17.067Z,100802.56
2023-08-14T02:53:19.986Z,100743.62
2023-08-14T02:56:22.633Z,100799.75
2023-08-14T02:59:25.710Z,100808.44
2023-08-14T03:02:28.481Z,100809.63
2023-08-14T03:05:34.232Z,100809.66
2023-08-14T03:08:36.882Z,100819.91
2023-08-14T03:11:40.117Z,100814.34
2023-08-14T03:14:42.896Z,100819.91
2023-08-14T03:17:46.924Z,100819.47
2023-08-14T03:20:50.248Z,100820.22
2023-08-14T03:23:54.025Z,100824.16
2023-08-14T03:26:56.640Z,100830.44
2023-08-14T03:29:59.731Z,100830.06
2023-08-14T03:33:03.163Z,100835.97
2023-08-14T03:36:06.704Z,100835.94
2023-08-14T03:39:09.420Z,100838.72
2023-08-14T03:42:12.464Z,100839.91
2023-08-14T03:45:15.091Z,100838.28
2023-08-14T03:48:17.978Z,100837.09
2023-08-14T03:51:20.810Z,100828.78
2023-08-14T03:54:23.749Z,100839.88
2023-08-14T03:57:26.421Z,100849.00
2023-08-14T04:00:29.400Z,100848.56
2023-08-14T04:03:32.425Z,100850.87
2023-08-14T04:06:36.323Z,100845.81
2023-08-14T04:09:39.376Z,100855.66
2023-08-14T04:12:41.999Z,100851.41
2023-08-14T04:15:45.005Z,100851.78
2023-08-14T04:18:53.700Z,100857.66
2023-08-14T04:21:56.729Z,100860.09
2023-08-14T04:24:59.302Z,100857.63
2023-08-14T04:28:02.348Z,100859.00
2023-08-14T04:31:05.000Z,100862.06
2023-08-14T04:34:10.545Z,100867.72
2023-08-14T04:37:13.909Z,100867.91
2023-08-14T04:40:17.043Z,100867.16
2023-08-14T04:43:19.774Z,100848.69
2023-08-14T04:46:53.362Z,100859.41
2023-08-14T04:50:00.819Z,100865.00
2023-08-14T04:53:06.545Z,100865.03
2023-08-14T04:56:10.117Z,100863.06
2023-08-14T04:59:13.043Z,100863.47
2023-08-14T05:02:16.690Z,100872.56
2023-08-14T05:05:21.088Z,100867.03
2023-08-14T05:08:24.712Z,100871.34
2023-08-14T05:11:27.673Z,100880.44
2023-08-14T05:14:30.565Z,100880.78
2023-08-14T05:17:33.592Z,100866.53
2023-08-14T05:20:37.352Z,100872.38
2023-08-14T05:23:40.284Z,100882.19
2023-08-14T05:26:43.164Z,100890.78
2023-08-14T05:29:48.318Z,100865.38
2023-08-14T05:32:51.030Z,100884.16
2023-08-14T05:35:54.140Z,100883.06
2023-08-14T05:38:56.832Z,100878.41
2023-08-14T05:41:59.798Z,100886.78
2023-08-14T05:45:02.573Z,100895.97
2023-08-14T05:48:07.558Z,100893.56
2023-08-14T05:51:10.242Z,100888.53
2023-08-14T05:54:13.278Z,100883.78
2023-08-14T05:57:15.936Z,100894.41
2023-08-14T06:00:20.571Z,100871.97
2023-08-14T06:03:37.661Z,100884.00
2023-08-14T06:06:46.091Z,100886.25
2023-08-14T06:09:49.023Z,100875.38
2023-08-14T06:12:52.664Z,100890.09
2023-08-14T06:15:55.655Z,100888.50
2023-08-14T06:18:58.324Z,100891.81
2023-08-14T06:22:01.408Z,100893.28
2023-08-14T06:25:04.317Z,100898.44
2023-08-14T06:28:07.303Z,100902.97
2023-08-14T06:31:10.514Z,100900.91
2023-08-14T06:34:13.572Z,100906.47
2023-08-14T06:37:16.760Z,100907.09
2023-08-14T06:40:19.746Z,100906.31
2023-08-14T06:43:22.385Z,100909.00
2023-08-14T06:46:25.486Z,100914.41
2023-08-14T06:49:28.931Z,100917.78
2023-08-14T06:52:31.895Z,100912.53
2023-08-14T06:55:34.562Z,100920.34
2023-08-14T06:58:37.581Z,100916.47
2023-08-14T07:01:40.248Z,100923.94
2023-08-14T07:04:43.417Z,100923.62
2023-08-14T07:07:46.073Z,100927.12
2023-08-14T07:10:49.328Z,100927.81
2023-08-14T07:13:51.970Z,100926.13
2023-08-14T07:16:54.952Z,100932.53
2023-08-14T07:19:57.669Z,100931.66
2023-08-14T07:23:00.799Z,100932.75
2023-08-14T07:26:12.600Z,100931.44
2023-08-14T07:29:19.760Z,100932.66
2023-08-14T07:32:22.724Z,100934.03
2023-08-14T07:35:25.636Z,100937.63
2023-08-14T07:38:28.526Z,100933.06
2023-08-14T07:41:31.518Z,100922.91
2023-08-14T07:44:34.096Z,100926.78
2023-08-14T07:47:38.012Z,100929.41
2023-08-14T07:50:40.759Z,100932.03
2023-08-14T07:53:43.711Z,100926.81
2023-08-14T07:56:48.106Z,100931.87
2023-08-14T07:59:52.558Z,100928.22
2023-08-14T08:02:55.535Z,100927.03
2023-08-14T08:05:58.623Z,100921.91
2023-08-14T08:09:01.256Z,100915.09
2023-08-14T08:12:04.545Z,100911.94
2023-08-14T08:15:07.509Z,100907.56
2023-08-14T08:18:10.494Z,100922.00
2023-08-14T08:21:13.402Z,100912.34
2023-08-14T08:24:16.750Z,100913.44
2023-08-14T08:27:19.314Z,100909.09
2023-08-14T08:30:22.209Z,100911.13
2023-08-14T08:33:27.851Z,100918.13
2023-08-14T08:36:31.035Z,100912.50
2023-08-14T08:39:33.658Z,100915.81
2023-08-14T08:42:37.639Z,100917.78
2023-08-14T08:45:42.445Z,100910.25
2023-08-14T08:48:47.735Z,100913.38
2023-08-14T08:51:52.870Z,100911.44
2023-08-14T08:54:56.411Z,100898.37
2023-08-14T08:57:59.902Z,100927.47
2023-08-14T09:01:04.145Z,100910.66
2023-08-14T09:04:07.101Z,100918.87
2023-08-14T09:07:10.218Z,100909.47
2023-08-14T09:10:13.535Z,100906.19
2023-08-14T09:13:17.471Z,100905.75
2023-08-14T09:16:28.572Z,100912.56
2023-08-14T09:19:31.486Z,100905.63
2023-08-14T09:22:34.074Z,100901.34
2023-08-14T09:25:37.442Z,100898.50
2023-08-14T09:28:40.406Z,100903.16
2023-08-14T09:31:45.667Z,100900.09
2023-08-14T09:34:48.735Z,100891.00
2023-08-14T09:37:51.856Z,100885.69
2023-08-14T09:40:58.557Z,100891.37
2023-08-14T09:44:02.248Z,100887.87
2023-08-14T09:47:06.422Z,100884.53
2023-08-14T09:50:10.425Z,100880.97
2023-08-14T09:53:13.078Z,100882.00
2023-08-14T09:56:17.905Z,100879.00
2023-08-14T09:59:21.174Z,100873.44
2023-08-14T10:02:25.397Z,100864.06
2023-08-14T10:05:28.998Z,100861.25
2023-08-14T10:08:35.440Z,100862.56
2023-08-14T10:11:38.896Z,100860.06
2023-08-14T10:14:46.607Z,100864.88
2023-08-14T10:18:02.482Z,100859.00
2023-08-14T10:21:09.026Z,100861.81
2023-08-14T10:24:13.299Z,100859.84
2023-08-14T10:27:16.294Z,100855.25
2023-08-14T10:30:26.860Z,100846.53
2023-08-14T10:33:31.097Z,100838.84
2023-08-14T10:36:34.170Z,100845.09
2023-08-14T10:39:37.246Z,100838.62
2023-08-14T10:42:44.569Z,100839.81
2023-08-14T10:45:47.242Z,100819.25
2023-08-14T10:48:50.866Z,100829.19
2023-08-14T10:52:02.917Z,100834.25
2023-08-14T10:55:16.654Z,100830.81
2023-08-14T10:58:36.542Z,100821.47
2023-08-14T11:01:39.648Z,100825.00
2023-08-14T11:05:14.015Z,100827.84
2023-08-14T11:08:17.632Z,100823.97
2023-08-14T11:11:21.148Z,100820.78
2023-08-14T11:14:24.520Z,100818.91
2023-08-14T11:17:28.689Z,100816.81
2023-08-14T11:20:31.978Z,100812.91
2023-08-14T11:23:34.631Z,100808.19
2023-08-14T11:26:37.553Z,100808.56
2023-08-14T11:32:46.634Z,100809.94
2023-08-14T11:35:49.448Z,100812.56
2023-08-14T11:38:52.948Z,100803.03
2023-08-14T11:41:55.650Z,100792.25
2023-08-14T11:44:58.662Z,100794.41
2023-08-14T11:48:02.306Z,100793.78
2023-08-14T11:51:06.055Z,100798.19
2023-08-14T11:54:10.726Z,100791.25
2023-08-14T11:57:14.846Z,100785.50
2023-08-14T12:00:23.774Z,100790.78
2023-08-14T12:03:32.327Z,100785.19
2023-08-14T12:06:35.513Z,100777.09
2023-08-14T12:09:39.362Z,100777.62
2023-08-14T12:12:51.470Z,100767.50
2023-08-14T12:16:11.973Z,100774.91
2023-08-14T12:19:15.087Z,100775.63
2023-08-14T12:22:22.090Z,100769.53
2023-08-14T12:25:25.353Z,100761.03
2023-08-14T12:28:29.148Z,100764.47
2023-08-14T12:31:31.837Z,100751.22
2023-08-14T12:34:34.861Z,100748.91
2023-08-14T12:37:37.754Z,100739.47
2023-08-14T12:40:40.907Z,100740.66
2023-08-14T12:43:43.804Z,100738.16
2023-08-14T12:46:46.936Z,100731.19
2023-08-14T12:49:49.560Z,100739.19
2023-08-14T12:52:52.446Z,100740.12
2023-08-14T12:59:05.632Z,100727.91
2023-08-14T13:02:08.284Z,100728.94
2023-08-14T13:05:11.296Z,100722.34
2023-08-14T13:08:14.004Z,100720.78
2023-08-14T13:11:19.410Z,100722.50
2023-08-14T13:14:22.147Z,100722.72
2023-08-14T13:17:25.166Z,100722.28
2023-08-14T13:20:28.207Z,100734.44
2023-08-14T13:23:31.229Z,100729.25
2023-08-14T13:26:35.916Z,100731.22
2023-08-14T13:29:41.480Z,100719.34
2023-08-14T13:32:44.680Z,100713.19
2023-08-14T13:35:47.840Z,100702.59
2023-08-14T13:38:50.457Z,100704.50
2023-08-14T13:41:54.361Z,100700.66
2023-08-14T13:45:04.400Z,100696.22
2023-08-14T13:48:15.648Z,100692.88
2023-08-14T13:51:18.411Z,100691.09
2023-08-14T13:54:21.342Z,100690.81
2023-08-14T13:57:24.062Z,100688.19
2023-08-14T14:00:30.149Z,100687.72
2023-08-14T14:03:34.210Z,100689.00
2023-08-14T14:06:36.804Z,100680.47
2023-08-14T14:09:41.490Z,100679.22
2023-08-14T14:12:59.570Z,100678.38
2023-08-14T14:16:04.766Z,100675.31
2023-08-14T14:19:07.479Z,100674.53
2023-08-14T14:22:10.434Z,100675.81
2023-08-14T14:25:14.258Z,100668.88
2023-08-14T14:28:17.309Z,100664.50
2023-08-14T14:31:19.979Z,100667.31
2023-08-14T14:34:22.966Z,100665.81
2023-08-14T14:37:25.621Z,100674.53
2023-08-14T14:40:29.797Z,100668.06
2023-08-14T14:43:34.705Z,100667.31
2023-08-14T14:46:38.748Z,100657.00
2023-08-14T14:49:41.477Z,100669.62
2023-08-14T14:52:44.450Z,100662.59
2023-08-14T14:55:47.069Z,100657.78
2023-08-14T14:58:50.015Z,100660.06
2023-08-14T15:01:52.750Z,100662.44
2023-08-14T15:04:55.699Z,100657.78
2023-08-14T15:07:58.797Z,100657.50
2023-08-14T15:11:01.801Z,100647.97
2023-08-14T15:14:04.895Z,100645.91
2023-08-14T15:17:07.756Z,100656.47
2023-08-14T15:20:11.392Z,100653.63
2023-08-14T15:23:14.710Z,100651.84
2023-08-14T15:26:17.286Z,100643.84
2023-08-14T15:29:20.347Z,100648.22
2023-08-14T15:32:23.015Z,100649.78
2023-08-14T15:35:25.987Z,100649.50
2023-08-14T15:38:28.623Z,100652.34
2023-08-14T15:41:31.641Z,100653.91
2023-08-14T15:44:34.267Z,100652.88
2023-08-14T15:47:37.350Z,100644.09
2023-08-14T15:50:40.041Z,100648.22
2023-08-14T15:53:43.143Z,100643.31
2023-08-14T15:56:45.744Z,100639.19
2023-08-14T15:59:49.082Z,100639.97
2023-08-14T16:02:51.716Z,100638.66
2023-08-14T16:05:56.215Z,100643.84
2023-08-14T16:08:58.801Z,100642.03
2023-08-14T16:12:01.711Z,100647.97
2023-08-14T16:15:04.835Z,100642.53
2023-08-14T16:18:07.824Z,100641.03
2023-08-14T16:21:10.671Z,100641.50
2023-08-14T16:24:13.766Z,100644.34
2023-08-14T16:27:16.550Z,100637.37
2023-08-14T16:30:19.464Z,100642.03
2023-08-14T16:33:22.209Z,100638.41
2023-08-14T16:36:25.222Z,100632.50
2023-08-14T16:39:27.985Z,100640.66
2023-08-14T16:42:30.902Z,100641.28
2023-08-14T16:45:33.489Z,100637.03
2023-08-14T16:48:36.390Z,100647.03
2023-08-14T16:51:39.118Z,100644.22
2023-08-14T16:54:43.214Z,100640.56
2023-08-14T16:57:46.003Z,100635.97
2023-08-14T17:00:49.829Z,100637.84
2023-08-14T17:03:52.555Z,100635.31
2023-08-14T17:06:55.636Z,100633.75
2023-08-14T17:09:59.093Z,100631.53
2023-08-14T17:13:02.212Z,100632.28
2023-08-14T17:16:05.540Z,100635.72
2023-08-14T17:19:08.580Z,100638.59
2023-08-14T17:22:11.439Z,100636.63
2023-08-14T17:25:14.459Z,100636.34
2023-08-14T17:28:17.105Z,100644.41
2023-08-14T17:31:20.144Z,100638.53
2023-08-14T17:34:23.052Z,100641.09
2023-08-14T17:37:26.059Z,100633.09
2023-08-14T17:40:29.149Z,100639.84
2023-08-14T17:43:32.094Z,100643.47
2023-08-14T17:46:34.767Z,100651.09
2023-08-14T17:49:38.157Z,100646.00
2023-08-14T17:52:40.790Z,100648.19
2023-08-14T17:55:43.771Z,100653.03
2023-08-14T17:58:46.832Z,100652.91
2023-08-14T18:01:49.858Z,100657.63
2023-08-14T18:04:52.862Z,100660.00
2023-08-14T18:07:55.476Z,100653.25
2023-08-14T18:11:02.672Z,100657.31
2023-08-14T18:14:05.380Z,100661.50
2023-08-14T18:17:08.356Z,100661.97
2023-08-14T18:20:11.892Z,100667.25
2023-08-14T18:23:14.770Z,100671.44
2023-08-14T18:26:17.436Z,100672.31
2023-08-14T18:29:20.437Z,100682.69
2023-08-14T18:32:23.060Z,100680.06
2023-08-14T18:35:26.086Z,100691.41
2023-08-14T18:38:28.733Z,100692.13
2023-08-14T18:41:31.655Z,100689.28
2023-08-14T18:44:34.388Z,100692.06
2023-08-14T18:47:37.420Z,100687.50
2023-08-14T18:50:40.078Z,100696.72
2023-08-14T18:53:43.604Z,100692.91
2023-08-14T18:56:46.165Z,100704.50
2023-08-14T18:59:49.111Z,100708.34
2023-08-14T19:02:52.669Z,100704.75
2023-08-14T19:06:00.563Z,100712.03
2023-08-14T19:09:03.343Z,100707.41
2023-08-14T19:12:08.465Z,100705.44
2023-08-14T19:15:11.234Z,100714.06
2023-08-14T19:18:14.397Z,100712.16
2023-08-14T19:21:17.036Z,100720.34
2023-08-14T19:24:19.946Z,100722.63
2023-08-14T19:27:22.578Z,100729.31
2023-08-14T19:30:25.462Z,100718.81
2023-08-14T19:33:28.024Z,100726.34
2023-08-14T19:36:31.535Z,100728.69
2023-08-14T19:39:34.334Z,100730.06
2023-08-14T19:42:38.442Z,100725.47
2023-08-14T19:45:41.687Z,100730.66
2023-08-14T19:48:45.565Z,100739.50
2023-08-14T19:51:48.478Z,100737.28
2023-08-14T19:54:51.687Z,100738.25
2023-08-14T19:57:54.272Z,100738.37
2023-08-14T20:01:00.979Z,100740.69
2023-08-14T20:04:05.361Z,100741.16
2023-08-14T20:07:08.059Z,100746.41
2023-08-14T20:10:11.081Z,100749.84
2023-08-14T20:13:14.711Z,100747.06
2023-08-14T20:16:20.701Z,100748.41
2023-08-14T20:19:25.540Z,100748.81
2023-08-14T20:22:28.562Z,100743.78
2023-08-14T20:25:31.331Z,100746.75
2023-08-14T20:28:36.964Z,100734.72
2023-08-14T20:31:39.535Z,100751.66
2023-08-14T20:34:42.822Z,100750.84
2023-08-14T20:37:45.603Z,100750.16
2023-08-14T20:40:53.469Z,100750.16
2023-08-14T20:43:56.073Z,100748.78
2023-08-14T20:46:58.977Z,100756.13
2023-08-14T20:50:01.644Z,100761.84
2023-08-14T20:53:05.009Z,100759.59
2023-08-14T20:56:07.911Z,100752.97
2023-08-14T20:59:10.848Z,100749.31
2023-08-14T21:02:13.558Z,100756.63
2023-08-14T21:05:16.561Z,100750.09
2023-08-14T21:08:19.198Z,100750.09
2023-08-14T21:11:22.070Z,100746.50
2023-08-14T21:14:24.795Z,100749.47
2023-08-14T21:17:27.866Z,100733.00
2023-08-14T21:20:30.505Z,100744.50
2023-08-14T21:23:33.511Z,100735.94
2023-08-14T21:26:37.494Z,100736.22
2023-08-14T21:29:40.465Z,100731.94
2023-08-14T21:32:43.277Z,100739.41
2023-08-14T21:35:47.320Z,100737.88
2023-08-14T21:38:49.924Z,100737.75
2023-08-14T21:41:52.802Z,100744.09
2023-08-14T21:44:55.464Z,100746.97
2023-08-14T21:47:58.456Z,100740.16
2023-08-14T21:51:01.172Z,100741.09
2023-08-14T21:54:04.551Z,100738.78
2023-08-14T21:57:07.221Z,100747.19
2023-08-14T22:00:10.806Z,100755.56
2023-08-14T22:03:13.240Z,100750.09
2023-08-14T22:06:16.189Z,100746.44
2023-08-14T22:09:18.805Z,100752.31
2023-08-14T22:12:21.831Z,100747.84
2023-08-14T22:15:29.904Z,100740.72
2023-08-14T22:18:39.398Z,100750.38
2023-08-14T22:21:42.209Z,100752.00
2023-08-14T22:24:45.103Z,100749.06
2023-08-14T22:27:47.698Z,100743.50
2023-08-14T22:30:50.546Z,100728.41
2023-08-14T22:33:53.160Z,100743.31
2023-08-14T22:36:56.079Z,100741.28
2023-08-14T22:39:58.783Z,100739.28
2023-08-14T22:43:02.050Z,100750.56
2023-08-14T22:46:04.619Z,100742.34
2023-08-14T22:49:07.482Z,100744.84
2023-08-14T22:52:10.105Z,100740.12
2023-08-14T22:55:13.084Z,100741.84
2023-08-14T22:58:15.692Z,100738.63
2023-08-14T23:01:18.635Z,100739.47
2023-08-14T23:04:21.628Z,100741.91
2023-08-14T23:07:24.556Z,100726.88
2023-08-14T23:10:27.174Z,100749.69
2023-08-14T23:13:30.095Z,100742.59
2023-08-14T23:16:32.788Z,100746.19
2023-08-14T23:19:35.684Z,100738.34
2023-08-14T23:22:38.396Z,100729.81
2023-08-14T23:25:41.326Z,100738.16
2023-08-14T23:28:44.025Z,100744.12
2023-08-14T23:31:46.962Z,100741.97
2023-08-14T23:34:49.532Z,100748.66
2023-08-14T23:37:53.205Z,100741.97
2023-08-14T23:40:55.857Z,100741.13
2023-08-14T23:43:58.767Z,100737.16
2023-08-14T23:47:03.541Z,100739.78
2023-08-14T23:50:07.113Z,100731.97
2023-08-14T23:53:09.744Z,100731.97
2023-08-14T23:56:12.700Z,100734.75
2023-08-14T23:59:15.361Z,100734.56
